sensor_id;sensor_type;location;lat;lon;timestamp;P1;durP1;ratioP1;P2;durP2;ratioP2
84519;SDS011;74755;43.084;0.132;2023-12-20T00:00:03;5.97;;;3.50;;
84519;SDS011;74755;43.084;0.132;2023-12-20T00:02:29;4.13;;;2.88;;
84519;SDS011;74755;43.084;0.132;2023-12-20T00:04:55;6.40;;;2.88;;
84519;SDS011;74755;43.084;0.132;2023-12-20T00:07:21;5.30;;;3.03;;
84519;SDS011;74755;43.084;0.132;2023-12-20T00:09:47;4.40;;;2.88;;
84519;SDS011;74755;43.084;0.132;2023-12-20T00:12:13;5.88;;;3.10;;
84519;SDS011;74755;43.084;0.132;2023-12-20T00:14:39;3.97;;;2.95;;
84519;SDS011;74755;43.084;0.132;2023-12-20T00:17:05;3.25;;;2.60;;
84519;SDS011;74755;43.084;0.132;2023-12-20T00:19:31;3.45;;;2.38;;
84519;SDS011;74755;43.084;0.132;2023-12-20T00:21:57;4.53;;;2.67;;
84519;SDS011;74755;43.084;0.132;2023-12-20T00:24:24;3.17;;;2.30;;
84519;SDS011;74755;43.084;0.132;2023-12-20T00:26:50;3.78;;;2.60;;
84519;SDS011;74755;43.084;0.132;2023-12-20T00:29:16;3.72;;;2.42;;
84519;SDS011;74755;43.084;0.132;2023-12-20T00:31:43;6.85;;;2.92;;
84519;SDS011;74755;43.084;0.132;2023-12-20T00:34:09;3.88;;;2.40;;
84519;SDS011;74755;43.084;0.132;2023-12-20T00:36:35;3.72;;;2.70;;
84519;SDS011;74755;43.084;0.132;2023-12-20T00:39:01;4.25;;;2.63;;
84519;SDS011;74755;43.084;0.132;2023-12-20T00:41:27;3.80;;;2.40;;
84519;SDS011;74755;43.084;0.132;2023-12-20T00:43:53;3.13;;;2.22;;
84519;SDS011;74755;43.084;0.132;2023-12-20T00:46:19;4.28;;;2.70;;
84519;SDS011;74755;43.084;0.132;2023-12-20T00:48:45;5.35;;;2.60;;
84519;SDS011;74755;43.084;0.132;2023-12-20T00:51:11;3.55;;;2.20;;
84519;SDS011;74755;43.084;0.132;2023-12-20T00:53:37;2.45;;;2.17;;
84519;SDS011;74755;43.084;0.132;2023-12-20T00:56:03;3.10;;;2.53;;
84519;SDS011;74755;43.084;0.132;2023-12-20T00:58:29;3.58;;;2.40;;
84519;SDS011;74755;43.084;0.132;2023-12-20T01:00:55;10.55;;;2.50;;
84519;SDS011;74755;43.084;0.132;2023-12-20T01:03:23;2.60;;;2.20;;
84519;SDS011;74755;43.084;0.132;2023-12-20T01:05:49;2.47;;;2.28;;
84519;SDS011;74755;43.084;0.132;2023-12-20T01:08:15;2.72;;;2.10;;
84519;SDS011;74755;43.084;0.132;2023-12-20T01:10:41;2.90;;;2.15;;
84519;SDS011;74755;43.084;0.132;2023-12-20T01:13:07;2.90;;;2.35;;
84519;SDS011;74755;43.084;0.132;2023-12-20T01:15:34;2.28;;;1.88;;
84519;SDS011;74755;43.084;0.132;2023-12-20T01:18:00;2.67;;;2.05;;
84519;SDS011;74755;43.084;0.132;2023-12-20T01:20:26;2.30;;;1.92;;
84519;SDS011;74755;43.084;0.132;2023-12-20T01:22:52;3.53;;;1.90;;
84519;SDS011;74755;43.084;0.132;2023-12-20T01:25:18;2.97;;;2.05;;
84519;SDS011;74755;43.084;0.132;2023-12-20T01:27:44;2.47;;;2.00;;
84519;SDS011;74755;43.084;0.132;2023-12-20T01:30:10;3.33;;;2.28;;
84519;SDS011;74755;43.084;0.132;2023-12-20T01:32:36;2.53;;;1.88;;
84519;SDS011;74755;43.084;0.132;2023-12-20T01:35:02;3.33;;;2.20;;
84519;SDS011;74755;43.084;0.132;2023-12-20T01:37:28;2.72;;;1.98;;
84519;SDS011;74755;43.084;0.132;2023-12-20T01:39:54;3.65;;;2.00;;
84519;SDS011;74755;43.084;0.132;2023-12-20T01:42:20;2.67;;;1.73;;
84519;SDS011;74755;43.084;0.132;2023-12-20T01:44:47;2.20;;;1.58;;
84519;SDS011;74755;43.084;0.132;2023-12-20T01:47:13;3.42;;;1.88;;
84519;SDS011;74755;43.084;0.132;2023-12-20T01:49:39;2.13;;;1.77;;
84519;SDS011;74755;43.084;0.132;2023-12-20T01:52:05;3.90;;;1.73;;
84519;SDS011;74755;43.084;0.132;2023-12-20T01:54:32;2.17;;;1.70;;
84519;SDS011;74755;43.084;0.132;2023-12-20T01:56:58;5.75;;;1.63;;
84519;SDS011;74755;43.084;0.132;2023-12-20T01:59:24;4.47;;;1.70;;
84519;SDS011;74755;43.084;0.132;2023-12-20T02:01:50;3.75;;;1.90;;
84519;SDS011;74755;43.084;0.132;2023-12-20T02:04:17;2.75;;;1.80;;
84519;SDS011;74755;43.084;0.132;2023-12-20T02:06:43;2.65;;;1.70;;
84519;SDS011;74755;43.084;0.132;2023-12-20T02:09:09;1.90;;;1.55;;
84519;SDS011;74755;43.084;0.132;2023-12-20T02:11:35;2.33;;;1.65;;
84519;SDS011;74755;43.084;0.132;2023-12-20T02:14:01;2.65;;;1.98;;
84519;SDS011;74755;43.084;0.132;2023-12-20T02:16:27;3.40;;;1.63;;
84519;SDS011;74755;43.084;0.132;2023-12-20T02:18:53;2.47;;;1.63;;
84519;SDS011;74755;43.084;0.132;2023-12-20T02:21:24;3.38;;;1.60;;
84519;SDS011;74755;43.084;0.132;2023-12-20T02:23:50;2.58;;;1.77;;
84519;SDS011;74755;43.084;0.132;2023-12-20T02:26:16;2.83;;;1.75;;
84519;SDS011;74755;43.084;0.132;2023-12-20T02:28:43;2.17;;;1.67;;
84519;SDS011;74755;43.084;0.132;2023-12-20T02:31:09;3.45;;;1.83;;
84519;SDS011;74755;43.084;0.132;2023-12-20T02:33:35;2.00;;;1.70;;
84519;SDS011;74755;43.084;0.132;2023-12-20T02:36:01;2.33;;;1.80;;
84519;SDS011;74755;43.084;0.132;2023-12-20T02:38:27;2.13;;;1.70;;
84519;SDS011;74755;43.084;0.132;2023-12-20T02:40:54;2.67;;;1.73;;
84519;SDS011;74755;43.084;0.132;2023-12-20T02:43:20;2.35;;;1.70;;
84519;SDS011;74755;43.084;0.132;2023-12-20T02:45:46;2.55;;;1.85;;
84519;SDS011;74755;43.084;0.132;2023-12-20T02:48:12;2.80;;;1.65;;
84519;SDS011;74755;43.084;0.132;2023-12-20T02:50:38;2.38;;;1.73;;
84519;SDS011;74755;43.084;0.132;2023-12-20T02:53:04;2.38;;;1.58;;
84519;SDS011;74755;43.084;0.132;2023-12-20T02:55:30;1.55;;;1.27;;
84519;SDS011;74755;43.084;0.132;2023-12-20T02:57:56;1.52;;;1.38;;
84519;SDS011;74755;43.084;0.132;2023-12-20T03:00:22;1.95;;;1.63;;
84519;SDS011;74755;43.084;0.132;2023-12-20T03:02:48;3.60;;;1.40;;
84519;SDS011;74755;43.084;0.132;2023-12-20T03:05:14;2.38;;;1.63;;
84519;SDS011;74755;43.084;0.132;2023-12-20T03:07:40;1.55;;;1.40;;
84519;SDS011;74755;43.084;0.132;2023-12-20T03:10:08;2.15;;;1.40;;
84519;SDS011;74755;43.084;0.132;2023-12-20T03:12:34;2.20;;;1.50;;
84519;SDS011;74755;43.084;0.132;2023-12-20T03:15:00;2.22;;;1.70;;
84519;SDS011;74755;43.084;0.132;2023-12-20T03:17:26;1.65;;;1.50;;
84519;SDS011;74755;43.084;0.132;2023-12-20T03:19:52;2.00;;;1.55;;
84519;SDS011;74755;43.084;0.132;2023-12-20T03:22:18;1.42;;;1.33;;
84519;SDS011;74755;43.084;0.132;2023-12-20T03:24:44;2.33;;;1.48;;
84519;SDS011;74755;43.084;0.132;2023-12-20T03:27:10;1.60;;;1.38;;
84519;SDS011;74755;43.084;0.132;2023-12-20T03:29:36;3.00;;;1.60;;
84519;SDS011;74755;43.084;0.132;2023-12-20T03:32:02;1.92;;;1.73;;
84519;SDS011;74755;43.084;0.132;2023-12-20T03:34:29;2.38;;;1.67;;
84519;SDS011;74755;43.084;0.132;2023-12-20T03:36:55;1.40;;;1.30;;
84519;SDS011;74755;43.084;0.132;2023-12-20T03:39:21;2.53;;;1.58;;
84519;SDS011;74755;43.084;0.132;2023-12-20T03:41:47;2.22;;;1.50;;
84519;SDS011;74755;43.084;0.132;2023-12-20T03:44:13;2.40;;;1.55;;
84519;SDS011;74755;43.084;0.132;2023-12-20T03:46:39;2.58;;;1.30;;
84519;SDS011;74755;43.084;0.132;2023-12-20T03:49:05;2.08;;;1.33;;
84519;SDS011;74755;43.084;0.132;2023-12-20T03:51:31;1.77;;;1.45;;
84519;SDS011;74755;43.084;0.132;2023-12-20T03:53:57;3.55;;;1.33;;
84519;SDS011;74755;43.084;0.132;2023-12-20T03:56:23;1.92;;;1.50;;
84519;SDS011;74755;43.084;0.132;2023-12-20T03:58:49;1.52;;;1.30;;
84519;SDS011;74755;43.084;0.132;2023-12-20T04:01:15;2.22;;;1.40;;
84519;SDS011;74755;43.084;0.132;2023-12-20T04:03:41;2.72;;;1.20;;
84519;SDS011;74755;43.084;0.132;2023-12-20T04:06:07;2.45;;;1.50;;
84519;SDS011;74755;43.084;0.132;2023-12-20T04:08:33;4.72;;;1.40;;
84519;SDS011;74755;43.084;0.132;2023-12-20T04:10:59;1.73;;;1.27;;
84519;SDS011;74755;43.084;0.132;2023-12-20T04:13:25;1.50;;;1.30;;
84519;SDS011;74755;43.084;0.132;2023-12-20T04:15:51;1.77;;;1.13;;
84519;SDS011;74755;43.084;0.132;2023-12-20T04:18:17;1.85;;;1.33;;
84519;SDS011;74755;43.084;0.132;2023-12-20T04:20:43;2.22;;;1.40;;
84519;SDS011;74755;43.084;0.132;2023-12-20T04:23:10;2.08;;;1.35;;
84519;SDS011;74755;43.084;0.132;2023-12-20T04:25:36;3.13;;;1.42;;
84519;SDS011;74755;43.084;0.132;2023-12-20T04:28:02;1.55;;;1.10;;
84519;SDS011;74755;43.084;0.132;2023-12-20T04:30:28;2.17;;;1.27;;
84519;SDS011;74755;43.084;0.132;2023-12-20T04:32:54;1.95;;;1.20;;
84519;SDS011;74755;43.084;0.132;2023-12-20T04:35:22;2.15;;;1.10;;
84519;SDS011;74755;43.084;0.132;2023-12-20T04:37:48;1.02;;;0.90;;
84519;SDS011;74755;43.084;0.132;2023-12-20T04:40:14;1.60;;;1.13;;
84519;SDS011;74755;43.084;0.132;2023-12-20T04:42:40;2.38;;;1.10;;
84519;SDS011;74755;43.084;0.132;2023-12-20T04:45:06;3.15;;;1.00;;
84519;SDS011;74755;43.084;0.132;2023-12-20T04:47:32;2.35;;;1.20;;
84519;SDS011;74755;43.084;0.132;2023-12-20T04:49:59;2.08;;;1.20;;
84519;SDS011;74755;43.084;0.132;2023-12-20T04:52:25;1.83;;;1.13;;
84519;SDS011;74755;43.084;0.132;2023-12-20T04:54:51;1.33;;;1.05;;
84519;SDS011;74755;43.084;0.132;2023-12-20T04:57:17;2.13;;;1.30;;
84519;SDS011;74755;43.084;0.132;2023-12-20T04:59:43;2.13;;;1.00;;
84519;SDS011;74755;43.084;0.132;2023-12-20T05:02:09;1.15;;;1.00;;
84519;SDS011;74755;43.084;0.132;2023-12-20T05:04:35;1.27;;;0.82;;
84519;SDS011;74755;43.084;0.132;2023-12-20T05:07:01;1.10;;;1.00;;
84519;SDS011;74755;43.084;0.132;2023-12-20T05:09:29;1.27;;;0.90;;
84519;SDS011;74755;43.084;0.132;2023-12-20T05:11:56;1.85;;;0.90;;
84519;SDS011;74755;43.084;0.132;2023-12-20T05:14:22;0.90;;;0.82;;
84519;SDS011;74755;43.084;0.132;2023-12-20T05:16:48;1.10;;;0.90;;
84519;SDS011;74755;43.084;0.132;2023-12-20T05:19:14;1.48;;;0.90;;
84519;SDS011;74755;43.084;0.132;2023-12-20T05:21:40;1.02;;;0.90;;
84519;SDS011;74755;43.084;0.132;2023-12-20T05:24:06;2.13;;;1.00;;
84519;SDS011;74755;43.084;0.132;2023-12-20T05:26:33;1.23;;;0.63;;
84519;SDS011;74755;43.084;0.132;2023-12-20T05:28:59;1.23;;;0.70;;
84519;SDS011;74755;43.084;0.132;2023-12-20T05:31:25;1.67;;;0.80;;
84519;SDS011;74755;43.084;0.132;2023-12-20T05:33:51;1.13;;;0.85;;
84519;SDS011;74755;43.084;0.132;2023-12-20T05:36:17;1.75;;;0.60;;
84519;SDS011;74755;43.084;0.132;2023-12-20T05:38:43;1.00;;;0.77;;
84519;SDS011;74755;43.084;0.132;2023-12-20T05:41:09;1.67;;;0.90;;
84519;SDS011;74755;43.084;0.132;2023-12-20T05:43:36;1.75;;;0.70;;
84519;SDS011;74755;43.084;0.132;2023-12-20T05:46:02;1.55;;;0.90;;
84519;SDS011;74755;43.084;0.132;2023-12-20T05:48:28;0.90;;;0.60;;
84519;SDS011;74755;43.084;0.132;2023-12-20T05:50:54;18.02;;;1.83;;
84519;SDS011;74755;43.084;0.132;2023-12-20T05:53:20;6.40;;;0.93;;
84519;SDS011;74755;43.084;0.132;2023-12-20T05:55:46;4.13;;;0.88;;
84519;SDS011;74755;43.084;0.132;2023-12-20T05:58:12;2.47;;;0.70;;
84519;SDS011;74755;43.084;0.132;2023-12-20T06:00:38;7.30;;;0.80;;
84519;SDS011;74755;43.084;0.132;2023-12-20T06:03:04;16.25;;;2.17;;
84519;SDS011;74755;43.084;0.132;2023-12-20T06:05:30;1.65;;;1.02;;
84519;SDS011;74755;43.084;0.132;2023-12-20T06:07:56;2.83;;;1.08;;
84519;SDS011;74755;43.084;0.132;2023-12-20T06:10:26;2.78;;;0.98;;
84519;SDS011;74755;43.084;0.132;2023-12-20T06:12:52;7.50;;;0.70;;
84519;SDS011;74755;43.084;0.132;2023-12-20T06:15:18;3.40;;;0.75;;
84519;SDS011;74755;43.084;0.132;2023-12-20T06:17:44;5.63;;;0.90;;
84519;SDS011;74755;43.084;0.132;2023-12-20T06:20:11;5.82;;;0.88;;
84519;SDS011;74755;43.084;0.132;2023-12-20T06:22:38;4.70;;;0.93;;
84519;SDS011;74755;43.084;0.132;2023-12-20T06:25:04;1.10;;;0.50;;
84519;SDS011;74755;43.084;0.132;2023-12-20T06:27:30;5.65;;;0.75;;
84519;SDS011;74755;43.084;0.132;2023-12-20T06:29:57;7.15;;;0.90;;
84519;SDS011;74755;43.084;0.132;2023-12-20T06:32:24;6.25;;;0.82;;
84519;SDS011;74755;43.084;0.132;2023-12-20T06:34:50;2.88;;;0.88;;
84519;SDS011;74755;43.084;0.132;2023-12-20T06:37:16;5.03;;;1.20;;
84519;SDS011;74755;43.084;0.132;2023-12-20T06:39:42;6.28;;;1.00;;
84519;SDS011;74755;43.084;0.132;2023-12-20T06:42:08;5.70;;;0.70;;
84519;SDS011;74755;43.084;0.132;2023-12-20T06:44:34;6.78;;;1.10;;
84519;SDS011;74755;43.084;0.132;2023-12-20T06:47:00;5.85;;;0.80;;
84519;SDS011;74755;43.084;0.132;2023-12-20T06:49:26;4.32;;;0.95;;
84519;SDS011;74755;43.084;0.132;2023-12-20T06:51:52;5.97;;;1.30;;
84519;SDS011;74755;43.084;0.132;2023-12-20T06:54:18;5.00;;;0.88;;
84519;SDS011;74755;43.084;0.132;2023-12-20T06:56:44;5.05;;;1.00;;
84519;SDS011;74755;43.084;0.132;2023-12-20T06:59:10;2.85;;;0.95;;
84519;SDS011;74755;43.084;0.132;2023-12-20T07:01:36;2.35;;;0.80;;
84519;SDS011;74755;43.084;0.132;2023-12-20T07:04:03;5.55;;;1.00;;
84519;SDS011;74755;43.084;0.132;2023-12-20T07:06:29;8.68;;;1.13;;
84519;SDS011;74755;43.084;0.132;2023-12-20T07:08:55;10.00;;;1.25;;
84519;SDS011;74755;43.084;0.132;2023-12-20T07:11:21;15.63;;;1.52;;
84519;SDS011;74755;43.084;0.132;2023-12-20T07:13:48;14.55;;;1.77;;
84519;SDS011;74755;43.084;0.132;2023-12-20T07:16:14;11.32;;;1.40;;
84519;SDS011;74755;43.084;0.132;2023-12-20T07:18:40;3.60;;;0.88;;
84519;SDS011;74755;43.084;0.132;2023-12-20T07:21:06;1.75;;;0.85;;
84519;SDS011;74755;43.084;0.132;2023-12-20T07:23:33;4.13;;;0.88;;
84519;SDS011;74755;43.084;0.132;2023-12-20T07:25:59;3.92;;;0.68;;
84519;SDS011;74755;43.084;0.132;2023-12-20T07:28:25;1.80;;;0.80;;
84519;SDS011;74755;43.084;0.132;2023-12-20T07:30:51;6.20;;;0.90;;
84519;SDS011;74755;43.084;0.132;2023-12-20T07:33:17;3.55;;;0.90;;
84519;SDS011;74755;43.084;0.132;2023-12-20T07:35:43;4.07;;;1.02;;
84519;SDS011;74755;43.084;0.132;2023-12-20T07:38:10;1.20;;;0.65;;
84519;SDS011;74755;43.084;0.132;2023-12-20T07:40:37;2.38;;;1.00;;
84519;SDS011;74755;43.084;0.132;2023-12-20T07:43:04;3.13;;;0.88;;
84519;SDS011;74755;43.084;0.132;2023-12-20T07:45:30;4.45;;;0.82;;
84519;SDS011;74755;43.084;0.132;2023-12-20T07:47:56;7.30;;;0.98;;
84519;SDS011;74755;43.084;0.132;2023-12-20T07:50:22;4.78;;;0.80;;
84519;SDS011;74755;43.084;0.132;2023-12-20T07:52:48;3.45;;;0.80;;
84519;SDS011;74755;43.084;0.132;2023-12-20T07:55:14;4.55;;;0.70;;
84519;SDS011;74755;43.084;0.132;2023-12-20T07:57:40;4.28;;;0.82;;
84519;SDS011;74755;43.084;0.132;2023-12-20T08:00:06;3.00;;;0.90;;
84519;SDS011;74755;43.084;0.132;2023-12-20T08:02:32;5.90;;;0.93;;
84519;SDS011;74755;43.084;0.132;2023-12-20T08:04:58;3.17;;;0.88;;
84519;SDS011;74755;43.084;0.132;2023-12-20T08:07:24;4.05;;;0.82;;
84519;SDS011;74755;43.084;0.132;2023-12-20T08:09:51;8.20;;;0.85;;
84519;SDS011;74755;43.084;0.132;2023-12-20T08:12:18;0.98;;;0.55;;
84519;SDS011;74755;43.084;0.132;2023-12-20T08:14:44;16.73;;;1.17;;
84519;SDS011;74755;43.084;0.132;2023-12-20T08:17:10;10.07;;;1.13;;
84519;SDS011;74755;43.084;0.132;2023-12-20T08:19:36;3.90;;;0.60;;
84519;SDS011;74755;43.084;0.132;2023-12-20T08:22:02;3.72;;;0.88;;
84519;SDS011;74755;43.084;0.132;2023-12-20T08:24:28;8.02;;;1.00;;
84519;SDS011;74755;43.084;0.132;2023-12-20T08:26:55;3.90;;;0.75;;
84519;SDS011;74755;43.084;0.132;2023-12-20T08:29:21;2.90;;;0.90;;
84519;SDS011;74755;43.084;0.132;2023-12-20T08:31:51;7.90;;;0.68;;
84519;SDS011;74755;43.084;0.132;2023-12-20T08:34:17;9.32;;;0.90;;
84519;SDS011;74755;43.084;0.132;2023-12-20T08:36:43;14.70;;;1.02;;
84519;SDS011;74755;43.084;0.132;2023-12-20T08:39:09;11.68;;;1.30;;
84519;SDS011;74755;43.084;0.132;2023-12-20T08:41:35;10.20;;;0.82;;
84519;SDS011;74755;43.084;0.132;2023-12-20T08:44:02;43.78;;;3.33;;
84519;SDS011;74755;43.084;0.132;2023-12-20T08:46:28;21.67;;;2.17;;
84519;SDS011;74755;43.084;0.132;2023-12-20T08:48:57;11.60;;;1.13;;
84519;SDS011;74755;43.084;0.132;2023-12-20T08:51:23;38.38;;;4.85;;
84519;SDS011;74755;43.084;0.132;2023-12-20T08:53:50;15.55;;;3.50;;
84519;SDS011;74755;43.084;0.132;2023-12-20T08:56:17;17.98;;;4.53;;
84519;SDS011;74755;43.084;0.132;2023-12-20T08:58:43;18.25;;;4.80;;
84519;SDS011;74755;43.084;0.132;2023-12-20T09:01:09;16.02;;;4.55;;
84519;SDS011;74755;43.084;0.132;2023-12-20T09:03:35;11.35;;;3.42;;
84519;SDS011;74755;43.084;0.132;2023-12-20T09:06:01;12.55;;;3.47;;
84519;SDS011;74755;43.084;0.132;2023-12-20T09:08:27;14.52;;;3.65;;
84519;SDS011;74755;43.084;0.132;2023-12-20T09:10:53;7.60;;;2.63;;
84519;SDS011;74755;43.084;0.132;2023-12-20T09:13:19;5.43;;;2.92;;
84519;SDS011;74755;43.084;0.132;2023-12-20T09:15:47;8.77;;;3.08;;
84519;SDS011;74755;43.084;0.132;2023-12-20T09:18:13;7.50;;;2.13;;
84519;SDS011;74755;43.084;0.132;2023-12-20T09:20:39;7.05;;;2.25;;
84519;SDS011;74755;43.084;0.132;2023-12-20T09:23:05;10.65;;;2.35;;
84519;SDS011;74755;43.084;0.132;2023-12-20T09:25:31;10.10;;;2.28;;
84519;SDS011;74755;43.084;0.132;2023-12-20T09:27:57;6.57;;;2.00;;
84519;SDS011;74755;43.084;0.132;2023-12-20T09:30:23;8.05;;;2.00;;
84519;SDS011;74755;43.084;0.132;2023-12-20T09:32:50;8.07;;;2.70;;
84519;SDS011;74755;43.084;0.132;2023-12-20T09:35:16;5.88;;;1.58;;
84519;SDS011;74755;43.084;0.132;2023-12-20T09:37:42;12.98;;;2.15;;
84519;SDS011;74755;43.084;0.132;2023-12-20T09:40:10;8.30;;;2.08;;
84519;SDS011;74755;43.084;0.132;2023-12-20T09:45:10;6.43;;;2.00;;
84519;SDS011;74755;43.084;0.132;2023-12-20T09:47:39;8.52;;;2.00;;
84519;SDS011;74755;43.084;0.132;2023-12-20T09:50:05;6.15;;;1.90;;
84519;SDS011;74755;43.084;0.132;2023-12-20T09:52:32;6.60;;;2.15;;
84519;SDS011;74755;43.084;0.132;2023-12-20T09:54:58;8.10;;;2.00;;
84519;SDS011;74755;43.084;0.132;2023-12-20T09:57:26;5.65;;;2.17;;
84519;SDS011;74755;43.084;0.132;2023-12-20T09:59:52;8.60;;;1.98;;
84519;SDS011;74755;43.084;0.132;2023-12-20T10:02:18;8.13;;;2.08;;
84519;SDS011;74755;43.084;0.132;2023-12-20T10:04:47;18.60;;;2.15;;
84519;SDS011;74755;43.084;0.132;2023-12-20T10:07:13;5.70;;;3.13;;
84519;SDS011;74755;43.084;0.132;2023-12-20T10:09:39;34.60;;;16.52;;
84519;SDS011;74755;43.084;0.132;2023-12-20T10:12:06;50.03;;;24.50;;
84519;SDS011;74755;43.084;0.132;2023-12-20T10:14:32;48.47;;;23.77;;
84519;SDS011;74755;43.084;0.132;2023-12-20T10:17:02;35.88;;;18.40;;
84519;SDS011;74755;43.084;0.132;2023-12-20T10:19:29;34.65;;;15.35;;
84519;SDS011;74755;43.084;0.132;2023-12-20T10:21:55;33.38;;;14.88;;
84519;SDS011;74755;43.084;0.132;2023-12-20T10:24:21;32.03;;;12.68;;
84519;SDS011;74755;43.084;0.132;2023-12-20T10:26:47;30.55;;;12.35;;
84519;SDS011;74755;43.084;0.132;2023-12-20T10:29:13;21.45;;;10.02;;
84519;SDS011;74755;43.084;0.132;2023-12-20T10:31:39;23.52;;;10.93;;
84519;SDS011;74755;43.084;0.132;2023-12-20T10:34:07;18.77;;;9.15;;
84519;SDS011;74755;43.084;0.132;2023-12-20T10:36:33;21.67;;;9.25;;
84519;SDS011;74755;43.084;0.132;2023-12-20T10:39:01;21.13;;;9.25;;
84519;SDS011;74755;43.084;0.132;2023-12-20T10:41:29;16.42;;;8.13;;
84519;SDS011;74755;43.084;0.132;2023-12-20T10:44:04;14.32;;;6.82;;
84519;SDS011;74755;43.084;0.132;2023-12-20T10:46:30;21.02;;;7.82;;
84519;SDS011;74755;43.084;0.132;2023-12-20T10:48:57;14.25;;;6.43;;
84519;SDS011;74755;43.084;0.132;2023-12-20T10:51:24;15.23;;;6.60;;
84519;SDS011;74755;43.084;0.132;2023-12-20T10:53:55;11.75;;;5.82;;
84519;SDS011;74755;43.084;0.132;2023-12-20T10:56:21;15.23;;;5.93;;
84519;SDS011;74755;43.084;0.132;2023-12-20T10:58:48;15.50;;;5.60;;
84519;SDS011;74755;43.084;0.132;2023-12-20T11:01:18;11.20;;;5.15;;
84519;SDS011;74755;43.084;0.132;2023-12-20T11:03:48;11.82;;;5.22;;
84519;SDS011;74755;43.084;0.132;2023-12-20T11:06:20;11.00;;;4.82;;
84519;SDS011;74755;43.084;0.132;2023-12-20T11:09:14;11.60;;;5.05;;
84519;SDS011;74755;43.084;0.132;2023-12-20T11:14:20;9.70;;;3.85;;
84519;SDS011;74755;43.084;0.132;2023-12-20T11:16:48;9.95;;;4.03;;
84519;SDS011;74755;43.084;0.132;2023-12-20T11:19:14;6.63;;;2.70;;
84519;SDS011;74755;43.084;0.132;2023-12-20T11:21:40;4.53;;;2.22;;
84519;SDS011;74755;43.084;0.132;2023-12-20T11:24:07;8.55;;;3.55;;
84519;SDS011;74755;43.084;0.132;2023-12-20T11:26:33;6.40;;;3.00;;
84519;SDS011;74755;43.084;0.132;2023-12-20T11:31:44;5.20;;;2.80;;
84519;SDS011;74755;43.084;0.132;2023-12-20T11:34:13;6.25;;;2.53;;
84519;SDS011;74755;43.084;0.132;2023-12-20T11:36:42;7.22;;;2.65;;
84519;SDS011;74755;43.084;0.132;2023-12-20T11:39:08;4.82;;;2.40;;
84519;SDS011;74755;43.084;0.132;2023-12-20T11:41:36;5.32;;;2.30;;
84519;SDS011;74755;43.084;0.132;2023-12-20T11:44:03;4.43;;;2.40;;
84519;SDS011;74755;43.084;0.132;2023-12-20T11:46:31;6.75;;;2.47;;
84519;SDS011;74755;43.084;0.132;2023-12-20T11:48:59;4.85;;;2.13;;
84519;SDS011;74755;43.084;0.132;2023-12-20T11:51:26;11.38;;;2.72;;
84519;SDS011;74755;43.084;0.132;2023-12-20T11:53:52;11.85;;;2.85;;
84519;SDS011;74755;43.084;0.132;2023-12-20T11:56:18;13.20;;;3.65;;
84519;SDS011;74755;43.084;0.132;2023-12-20T11:58:45;15.93;;;3.38;;
84519;SDS011;74755;43.084;0.132;2023-12-20T12:01:11;19.15;;;4.00;;
84519;SDS011;74755;43.084;0.132;2023-12-20T12:03:37;26.42;;;7.97;;
84519;SDS011;74755;43.084;0.132;2023-12-20T12:06:03;27.83;;;9.63;;
84519;SDS011;74755;43.084;0.132;2023-12-20T12:08:30;38.30;;;14.75;;
84519;SDS011;74755;43.084;0.132;2023-12-20T12:10:56;66.13;;;25.30;;
84519;SDS011;74755;43.084;0.132;2023-12-20T12:13:22;83.10;;;25.20;;
84519;SDS011;74755;43.084;0.132;2023-12-20T12:15:48;71.40;;;22.15;;
84519;SDS011;74755;43.084;0.132;2023-12-20T12:18:15;60.90;;;21.20;;
84519;SDS011;74755;43.084;0.132;2023-12-20T12:20:42;47.78;;;21.13;;
84519;SDS011;74755;43.084;0.132;2023-12-20T12:23:08;60.88;;;21.15;;
84519;SDS011;74755;43.084;0.132;2023-12-20T12:25:37;51.92;;;18.23;;
84519;SDS011;74755;43.084;0.132;2023-12-20T12:28:03;43.90;;;16.63;;
84519;SDS011;74755;43.084;0.132;2023-12-20T12:30:29;50.30;;;17.85;;
84519;SDS011;74755;43.084;0.132;2023-12-20T12:32:55;44.80;;;17.23;;
84519;SDS011;74755;43.084;0.132;2023-12-20T12:35:22;43.85;;;15.77;;
84519;SDS011;74755;43.084;0.132;2023-12-20T12:37:49;40.72;;;15.35;;
84519;SDS011;74755;43.084;0.132;2023-12-20T12:40:15;41.70;;;14.50;;
84519;SDS011;74755;43.084;0.132;2023-12-20T12:42:42;36.45;;;14.10;;
84519;SDS011;74755;43.084;0.132;2023-12-20T12:45:08;32.60;;;13.63;;
84519;SDS011;74755;43.084;0.132;2023-12-20T12:47:35;32.00;;;12.07;;
84519;SDS011;74755;43.084;0.132;2023-12-20T12:50:01;29.95;;;12.00;;
84519;SDS011;74755;43.084;0.132;2023-12-20T12:52:27;32.58;;;12.27;;
84519;SDS011;74755;43.084;0.132;2023-12-20T12:54:53;35.85;;;11.80;;
84519;SDS011;74755;43.084;0.132;2023-12-20T12:57:19;31.63;;;10.65;;
84519;SDS011;74755;43.084;0.132;2023-12-20T12:59:45;27.50;;;10.63;;
84519;SDS011;74755;43.084;0.132;2023-12-20T13:02:14;26.50;;;10.52;;
84519;SDS011;74755;43.084;0.132;2023-12-20T13:04:41;26.13;;;10.27;;
84519;SDS011;74755;43.084;0.132;2023-12-20T13:07:07;26.48;;;9.20;;
84519;SDS011;74755;43.084;0.132;2023-12-20T13:09:35;34.03;;;11.00;;
84519;SDS011;74755;43.084;0.132;2023-12-20T13:12:02;22.92;;;8.80;;
84519;SDS011;74755;43.084;0.132;2023-12-20T13:14:29;36.05;;;9.40;;
84519;SDS011;74755;43.084;0.132;2023-12-20T13:16:55;17.23;;;7.43;;
84519;SDS011;74755;43.084;0.132;2023-12-20T13:19:21;18.98;;;8.05;;
84519;SDS011;74755;43.084;0.132;2023-12-20T13:21:47;35.13;;;8.18;;
84519;SDS011;74755;43.084;0.132;2023-12-20T13:24:13;19.48;;;7.38;;
84519;SDS011;74755;43.084;0.132;2023-12-20T13:26:39;17.95;;;6.70;;
84519;SDS011;74755;43.084;0.132;2023-12-20T13:29:06;18.88;;;6.60;;
84519;SDS011;74755;43.084;0.132;2023-12-20T13:31:32;26.58;;;7.05;;
84519;SDS011;74755;43.084;0.132;2023-12-20T13:33:58;21.23;;;6.75;;
84519;SDS011;74755;43.084;0.132;2023-12-20T13:36:25;15.98;;;5.47;;
84519;SDS011;74755;43.084;0.132;2023-12-20T13:38:51;18.08;;;5.80;;
84519;SDS011;74755;43.084;0.132;2023-12-20T13:41:18;16.42;;;5.90;;
84519;SDS011;74755;43.084;0.132;2023-12-20T13:43:44;12.38;;;5.22;;
84519;SDS011;74755;43.084;0.132;2023-12-20T13:46:10;14.18;;;6.00;;
84519;SDS011;74755;43.084;0.132;2023-12-20T13:48:36;19.50;;;7.85;;
84519;SDS011;74755;43.084;0.132;2023-12-20T13:51:03;25.65;;;7.97;;
84519;SDS011;74755;43.084;0.132;2023-12-20T13:53:29;19.45;;;7.35;;
84519;SDS011;74755;43.084;0.132;2023-12-20T13:55:55;19.75;;;7.20;;
84519;SDS011;74755;43.084;0.132;2023-12-20T13:58:22;18.27;;;6.93;;
84519;SDS011;74755;43.084;0.132;2023-12-20T14:00:48;29.98;;;8.15;;
84519;SDS011;74755;43.084;0.132;2023-12-20T14:03:14;18.58;;;6.97;;
84519;SDS011;74755;43.084;0.132;2023-12-20T14:05:40;29.90;;;7.30;;
84519;SDS011;74755;43.084;0.132;2023-12-20T14:08:06;18.80;;;6.50;;
84519;SDS011;74755;43.084;0.132;2023-12-20T14:10:33;19.25;;;5.88;;
84519;SDS011;74755;43.084;0.132;2023-12-20T14:12:59;13.43;;;6.32;;
84519;SDS011;74755;43.084;0.132;2023-12-20T14:15:25;18.17;;;6.07;;
84519;SDS011;74755;43.084;0.132;2023-12-20T14:17:53;14.20;;;5.90;;
84519;SDS011;74755;43.084;0.132;2023-12-20T14:20:19;15.55;;;5.30;;
84519;SDS011;74755;43.084;0.132;2023-12-20T14:22:46;17.15;;;5.60;;
84519;SDS011;74755;43.084;0.132;2023-12-20T14:25:12;14.32;;;5.45;;
84519;SDS011;74755;43.084;0.132;2023-12-20T14:27:39;17.65;;;5.50;;
84519;SDS011;74755;43.084;0.132;2023-12-20T14:30:05;15.85;;;5.57;;
84519;SDS011;74755;43.084;0.132;2023-12-20T14:32:34;13.70;;;5.10;;
84519;SDS011;74755;43.084;0.132;2023-12-20T14:35:02;16.85;;;5.05;;
84519;SDS011;74755;43.084;0.132;2023-12-20T14:37:29;10.95;;;4.47;;
84519;SDS011;74755;43.084;0.132;2023-12-20T14:39:55;15.27;;;5.32;;
84519;SDS011;74755;43.084;0.132;2023-12-20T14:42:21;13.70;;;4.65;;